.
WxDataArchive / Data Records for 2010-10-10
2010-10-09 October 2010 2010-10-11

Data Records for Sunday, 10 October 2010

Time	Temp	Chill	HIndex	Humid	Dewpt	 Wind 	HiWind	WindDir	Rain 	Barom 
-----	----	-----	------	-----	-----	------	------	-------	-----	----- 
00:00	59.8	59.8	59.8	68	49.2	0	0	---	0.00	29.996 
00:05	59.5	59.5	59.5	68	48.9	0	0	---	0.00	29.996 
00:10	59.3	59.3	59.3	69	49.1	0	0	---	0.00	29.996 
00:15	59.2	59.2	59.2	69	49.0	0	0	---	0.00	29.991 
00:20	59.0	59.0	59.0	69	48.8	0	0	---	0.00	29.991 
00:25	58.9	58.9	58.9	70	49.1	0	1	112	0.00	29.991 
00:30	58.9	58.9	58.9	70	49.1	0	0	---	0.00	29.990 
00:35	58.7	58.7	58.7	70	48.9	0	0	---	0.00	29.990 
00:40	58.6	58.6	58.6	71	49.2	0	0	---	0.00	29.990 
00:45	58.6	58.6	58.6	71	49.2	0	0	---	0.00	29.987 
00:50	58.4	58.4	58.4	71	49.0	0	0	---	0.00	29.987 
00:55	58.3	58.3	58.3	72	49.3	0	0	---	0.00	29.987 
01:00	58.1	58.1	58.1	72	49.1	0	0	---	0.00	29.985 
01:05	58.0	58.0	58.0	73	49.4	0	0	---	0.00	29.985 
01:10	57.6	57.6	57.6	73	49.0	0	0	---	0.00	29.985 
01:15	57.5	57.5	57.5	74	49.3	0	0	---	0.00	29.980 
01:20	57.2	57.2	57.2	74	49.0	0	0	---	0.00	29.980 
01:25	57.0	57.0	57.0	75	49.2	0	0	---	0.00	29.980 
01:30	56.7	56.7	56.7	76	49.2	0	0	---	0.00	29.974 
01:35	56.6	56.6	56.6	77	49.5	0	0	---	0.00	29.974 
01:40	56.5	56.5	56.5	77	49.4	0	0	---	0.00	29.974 
01:45	56.2	56.2	56.2	77	49.1	0	0	---	0.00	29.972 
01:50	56.0	56.0	56.0	78	49.2	0	0	---	0.00	29.972 
01:55	55.9	55.9	55.9	79	49.5	0	0	---	0.00	29.972 
02:00	55.7	55.7	55.7	79	49.3	0	0	---	0.00	29.969 
02:05	55.6	55.6	55.6	80	49.5	0	0	---	0.00	29.969 
02:10	55.4	55.4	55.4	80	49.3	0	0	---	0.00	29.969 
02:15	55.1	55.1	55.1	81	49.4	0	0	---	0.00	29.968 
02:20	55.1	55.1	55.1	81	49.4	0	0	---	0.00	29.968 
02:25	55.0	55.0	55.0	82	49.6	0	0	---	0.00	29.968 
02:30	54.8	54.8	54.8	82	49.4	0	0	---	0.00	29.967 
02:35	54.8	54.8	54.8	82	49.4	0	0	---	0.00	29.967 
02:40	54.7	54.7	54.7	82	49.3	0	0	---	0.00	29.967 
02:45	54.5	54.5	54.5	83	49.4	0	0	---	0.00	29.963 
02:50	54.5	54.5	54.5	83	49.4	0	0	---	0.00	29.963 
02:55	54.4	54.4	54.4	84	49.7	0	0	---	0.00	29.963 
03:00	54.2	54.2	54.2	84	49.5	0	0	---	0.00	29.966 
03:05	54.1	54.1	54.1	84	49.4	0	0	---	0.00	29.966 
03:10	54.1	54.1	54.1	84	49.4	0	0	---	0.00	29.966 
03:15	53.9	53.9	53.9	84	49.2	0	0	---	0.00	29.959 
03:20	53.8	53.8	53.8	85	49.4	0	0	---	0.00	29.959 
03:25	53.6	53.6	53.6	85	49.2	0	0	---	0.00	29.959 
03:30	53.6	53.6	53.6	85	49.2	0	0	---	0.00	29.957 
03:35	53.5	53.5	53.5	85	49.1	0	0	---	0.00	29.957 
03:40	53.5	53.5	53.5	86	49.4	0	0	---	0.00	29.957 
03:45	53.3	53.3	53.3	86	49.2	0	0	---	0.00	29.956 
03:50	53.2	53.2	53.2	86	49.1	0	0	---	0.00	29.956 
03:55	53.2	53.2	53.2	86	49.1	0	0	---	0.00	29.956 
04:00	53.2	53.2	53.2	87	49.4	0	0	---	0.00	29.948 
04:05	53.1	53.1	53.1	87	49.3	0	0	---	0.00	29.948 
04:10	53.1	53.1	53.1	87	49.3	0	0	---	0.00	29.948 
04:15	52.9	52.9	52.9	88	49.4	0	0	---	0.00	29.945 
04:20	52.8	52.8	52.8	88	49.3	0	0	---	0.00	29.945 
04:25	52.8	52.8	52.8	88	49.3	0	0	---	0.00	29.945 
04:30	52.6	52.6	52.6	88	49.1	0	0	---	0.00	29.943 
04:35	52.6	52.6	52.6	88	49.1	0	0	---	0.00	29.943 
04:40	52.5	52.5	52.5	88	49.0	0	0	---	0.00	29.943 
04:45	52.3	52.3	52.3	88	48.9	0	0	---	0.00	29.942 
04:50	52.2	52.2	52.2	88	48.8	0	0	---	0.00	29.942 
04:55	52.2	52.2	52.2	89	49.1	0	0	---	0.00	29.942 
05:00	52.0	52.0	52.0	89	48.9	0	0	---	0.00	29.943 
05:05	52.0	52.0	52.0	89	48.9	0	0	---	0.00	29.943 
05:10	52.0	52.0	52.0	89	48.9	0	0	---	0.00	29.943 
05:15	51.9	51.9	51.9	89	48.8	0	0	---	0.00	29.944 
05:20	51.9	51.9	51.9	90	49.1	0	0	---	0.00	29.944 
05:25	51.7	51.7	51.7	90	48.9	0	0	---	0.00	29.944 
05:30	51.7	51.7	51.7	90	48.9	0	0	---	0.00	29.942 
05:35	51.7	51.7	51.7	90	48.9	0	0	---	0.00	29.942 
05:40	51.6	51.6	51.6	90	48.8	0	0	---	0.00	29.942 
05:45	51.6	51.6	51.6	91	49.1	0	0	---	0.00	29.944 
05:50	51.6	51.6	51.6	91	49.1	0	0	---	0.00	29.944 
05:55	51.6	51.6	51.6	91	49.1	0	0	---	0.00	29.944 
06:00	51.7	51.7	51.7	91	49.2	0	0	---	0.00	29.944 
06:05	52.0	52.0	52.0	92	49.7	0	0	---	0.00	29.944 
06:10	52.3	52.3	52.3	92	50.0	0	0	---	0.00	29.944 
06:15	52.8	52.8	52.8	93	50.8	0	1	112	0.00	29.946 
06:20	53.5	53.5	53.5	93	51.5	0	0	---	0.00	29.946 
06:25	54.2	54.2	54.2	93	52.2	0	0	---	0.00	29.946 
06:30	55.0	55.0	55.0	92	52.7	0	1	112	0.00	29.946 
06:35	55.7	55.7	55.7	92	53.4	0	2	112	0.00	29.946 
06:40	56.5	56.5	56.5	90	53.6	0	1	112	0.00	29.946 
06:45	57.0	57.0	57.0	88	53.5	0	1	112	0.00	29.947 
06:50	57.6	57.6	57.6	86	53.4	0	1	112	0.00	29.947 
06:55	58.0	58.0	58.0	84	53.2	0	0	---	0.00	29.947 
07:00	58.0	58.0	58.0	83	52.9	0	0	---	0.00	29.949 
07:05	58.0	58.0	58.0	83	52.9	0	0	---	0.00	29.949 
07:10	58.0	58.0	58.0	82	52.5	0	0	---	0.00	29.949 
07:15	57.8	57.8	57.8	82	52.3	0	0	---	0.00	29.955 
07:20	57.6	57.6	57.6	82	52.1	0	0	---	0.00	29.955 
07:25	57.3	57.3	57.3	82	51.9	0	0	---	0.00	29.955 
07:30	57.0	57.0	57.0	83	51.9	0	0	---	0.00	29.959 
07:35	56.9	56.9	56.9	83	51.8	0	0	---	0.00	29.959 
07:40	56.7	56.7	56.7	84	51.9	0	0	---	0.00	29.959 
07:45	56.5	56.5	56.5	84	51.7	0	0	---	0.00	29.960 
07:50	56.3	56.3	56.3	84	51.5	0	0	---	0.00	29.960 
07:55	56.2	56.2	56.2	84	51.4	0	0	---	0.00	29.960 
08:00	56.0	56.0	56.0	85	51.6	0	0	---	0.00	29.960 
08:05	55.9	55.9	55.9	85	51.5	0	0	---	0.00	29.960 
08:10	55.9	55.9	55.9	86	51.8	0	0	---	0.00	29.960 
08:15	55.9	55.9	55.9	86	51.8	0	0	---	0.00	29.965 
08:20	56.0	56.0	56.0	86	51.9	0	0	---	0.00	29.965 
08:25	56.3	56.3	56.3	86	52.2	0	0	---	0.00	29.965 
08:30	56.7	56.7	56.7	86	52.6	0	0	---	0.00	29.962 
08:35	57.3	57.3	57.3	85	52.8	0	1	112	0.00	29.962 
08:40	58.0	58.0	58.0	84	53.2	0	0	---	0.00	29.962 
08:45	58.6	58.6	58.6	82	53.1	0	1	112	0.00	29.965 
08:50	59.0	59.0	59.0	81	53.2	0	1	112	0.00	29.965 
08:55	59.5	59.5	59.5	79	53.0	0	0	---	0.00	29.965 
09:00	60.1	60.1	60.1	78	53.2	0	1	112	0.00	29.965 
09:05	60.5	60.5	60.5	77	53.2	0	1	112	0.00	29.965 
09:10	61.3	61.3	61.3	75	53.3	0	2	112	0.00	29.965 
09:15	61.8	61.8	61.8	74	53.4	0	1	112	0.00	29.965 
09:20	62.4	62.4	62.4	72	53.2	0	2	112	0.00	29.965 
09:25	62.9	62.9	62.9	71	53.3	0	3	112	0.00	29.965 
09:30	63.2	63.2	63.2	70	53.2	1	3	112	0.00	29.964 
09:35	63.7	63.7	63.7	69	53.3	0	3	248	0.00	29.964 
09:40	64.2	64.2	64.2	68	53.4	1	2	248	0.00	29.964 
09:45	64.7	64.7	64.7	67	53.5	1	3	292	0.00	29.961 
09:50	65.2	65.2	65.2	66	53.5	1	3	270	0.00	29.961 
09:55	65.8	65.8	65.8	64	53.3	1	2	270	0.00	29.961 
10:00	66.6	66.6	66.6	62	53.2	1	3	270	0.00	29.959 
10:05	67.4	67.4	67.4	60	53.0	1	3	270	0.00	29.959 
10:10	68.4	68.4	68.4	58	53.0	1	4	270	0.00	29.959 
10:15	68.9	68.9	68.9	56	52.5	2	3	292	0.00	29.956 
10:20	69.4	69.4	69.4	55	52.5	1	3	292	0.00	29.956 
10:25	70.1	70.1	70.1	55	53.2	1	3	292	0.00	29.956 
10:30	70.8	70.8	70.8	53	52.8	1	3	292	0.00	29.954 
10:35	71.6	71.6	71.6	50	52.0	1	3	292	0.00	29.954 
10:40	72.3	72.3	72.3	49	52.1	1	3	292	0.00	29.954 
10:45	73.0	73.0	73.0	48	52.1	1	3	292	0.00	29.951 
10:50	73.7	73.7	73.7	46	51.6	2	4	292	0.00	29.951 
10:55	74.2	74.2	74.2	44	50.9	2	4	270	0.00	29.951 
11:00	74.9	74.9	74.9	43	50.9	1	4	270	0.00	29.944 
11:05	75.4	75.4	77.6	41	50.0	2	3	315	0.00	29.944 
11:10	75.8	75.8	77.7	40	49.7	2	3	292	0.00	29.944 
11:15	76.0	76.0	77.9	41	50.6	1	3	292	0.00	29.945 
11:20	76.5	76.5	78.1	42	51.7	1	3	315	0.00	29.945 
11:25	76.8	76.8	78.1	39	49.9	1	3	338	0.00	29.945 
11:30	77.4	77.4	78.3	38	49.8	2	4	270	0.00	29.943 
11:35	77.4	77.4	78.3	38	49.8	2	5	270	0.00	29.943 
11:40	77.7	77.7	78.5	39	50.7	1	2	270	0.00	29.943 
11:45	78.1	78.1	78.7	39	51.1	1	3	315	0.00	29.942 
11:50	78.3	78.3	78.7	37	49.9	2	4	292	0.00	29.942 
11:55	78.8	78.8	78.9	36	49.6	1	4	292	0.00	29.942 
12:00	79.2	79.2	79.1	35	49.2	2	5	270	0.00	29.941 
12:05	79.8	79.8	79.3	34	48.9	1	4	292	0.00	29.941 
12:10	80.3	80.3	79.6	33	48.5	2	5	270	0.00	29.941 
12:15	80.7	80.7	79.8	32	48.1	1	3	292	0.00	29.934 
12:20	81.2	81.2	80.0	31	47.7	1	3	292	0.00	29.934 
12:25	81.4	81.4	80.1	31	47.8	1	3	292	0.00	29.934 
12:30	81.6	81.6	80.2	30	47.1	2	4	292	0.00	29.932 
12:35	81.8	81.8	80.3	29	46.4	1	4	248	0.00	29.932 
12:40	81.8	81.8	80.2	28	45.5	2	4	270	0.00	29.932 
12:45	82.2	82.2	80.5	28	45.8	1	4	270	0.00	29.927 
12:50	82.4	82.4	80.5	27	45.0	2	4	270	0.00	29.927 
12:55	82.8	82.8	80.8	27	45.4	1	4	292	0.00	29.927 
13:00	83.2	83.2	81.1	27	45.7	2	3	270	0.00	29.925 
13:05	83.6	83.6	81.4	27	46.1	2	4	315	0.00	29.925 
13:10	83.8	83.8	81.6	27	46.2	1	3	315	0.00	29.925 
13:15	84.0	84.0	81.6	26	45.4	2	4	270	0.00	29.922 
13:20	84.0	84.0	81.7	27	46.4	2	5	270	0.00	29.922 
13:25	84.0	84.0	81.8	28	47.4	2	4	315	0.00	29.922 
13:30	84.3	84.3	82.0	27	46.6	2	4	270	0.00	29.913 
13:35	84.5	84.5	82.0	26	45.8	1	3	248	0.00	29.913 
13:40	84.7	84.7	82.1	25	45.0	2	6	248	0.00	29.913 
13:45	84.5	84.5	82.0	25	44.8	3	5	270	0.00	29.910 
13:50	84.3	84.3	81.8	25	44.6	2	6	292	0.00	29.910 
13:55	84.5	84.5	82.0	25	44.8	2	5	270	0.00	29.910 
14:00	84.7	84.7	82.1	25	45.0	2	5	270	0.00	29.906 
14:05	84.7	84.7	82.1	25	45.0	2	4	248	0.00	29.906 
14:10	84.9	84.9	82.3	25	45.1	2	5	248	0.00	29.906 
14:15	84.7	84.7	82.1	25	45.0	3	6	270	0.00	29.898 
14:20	84.7	84.7	82.0	24	43.9	2	5	248	0.00	29.898 
14:25	84.7	84.7	82.0	24	43.9	3	6	270	0.00	29.898 
14:30	84.7	84.7	82.0	24	43.9	3	5	270	0.00	29.896 
14:35	84.5	84.5	81.9	24	43.7	2	5	292	0.00	29.896 
14:40	84.5	84.5	81.9	24	43.7	2	3	315	0.00	29.896 
14:45	84.7	84.7	82.0	24	43.9	3	5	292	0.00	29.892 
14:50	84.5	84.5	82.0	26	45.8	2	4	292	0.00	29.892 
14:55	84.7	84.7	82.0	24	43.9	2	6	270	0.00	29.892 
15:00	84.9	84.9	82.3	25	45.1	2	4	248	0.00	29.882 
15:05	84.7	84.7	82.1	25	45.0	2	4	315	0.00	29.882 
15:10	84.7	84.7	82.1	25	45.0	2	4	292	0.00	29.882 
15:15	84.7	84.7	82.1	25	45.0	1	4	292	0.00	29.879 
15:20	84.9	84.9	82.3	25	45.1	3	6	292	0.00	29.879 
15:25	84.9	84.9	82.3	25	45.1	2	4	292	0.00	29.879 
15:30	85.1	85.1	82.4	25	45.3	1	4	292	0.00	29.878 
15:35	85.1	85.1	82.4	25	45.3	2	4	270	0.00	29.878 
15:40	85.3	85.3	82.5	24	44.4	1	2	270	0.00	29.878 
15:45	85.5	85.5	82.7	24	44.6	2	5	270	0.00	29.872 
15:50	85.5	85.5	82.7	24	44.6	2	4	270	0.00	29.872 
15:55	85.5	85.5	82.8	25	45.6	1	6	270	0.00	29.872 
16:00	85.7	85.7	82.8	23	43.6	1	3	270	0.00	29.867 
16:05	85.7	85.7	82.9	24	44.7	2	4	270	0.00	29.867 
16:10	85.5	85.5	82.7	24	44.6	2	4	292	0.00	29.867 
16:15	85.3	85.3	82.5	23	43.3	1	3	270	0.00	29.867 
16:20	85.1	85.1	82.3	23	43.1	2	6	270	0.00	29.867 
16:25	84.9	84.9	82.2	24	44.1	2	5	292	0.00	29.867 
16:30	84.9	84.9	82.1	23	42.9	2	3	270	0.00	29.866 
16:35	84.7	84.7	82.0	23	42.8	1	5	292	0.00	29.866 
16:40	84.7	84.7	82.0	23	42.8	1	3	315	0.00	29.866 
16:45	84.7	84.7	82.0	24	43.9	1	4	270	0.00	29.862 
16:50	84.7	84.7	82.0	23	42.8	2	5	292	0.00	29.862 
16:55	84.5	84.5	82.0	25	44.8	1	3	292	0.00	29.862 
17:00	84.5	84.5	81.9	24	43.7	1	4	292	0.00	29.860 
17:05	84.3	84.3	81.8	25	44.6	2	5	270	0.00	29.860 
17:10	84.3	84.3	81.8	25	44.6	1	2	292	0.00	29.860 
17:15	84.1	84.1	81.7	25	44.4	1	4	315	0.00	29.856 
17:20	84.0	84.0	81.6	25	44.4	1	3	248	0.00	29.856 
17:25	83.8	83.8	81.4	25	44.2	1	4	270	0.00	29.856 
17:30	83.8	83.8	81.5	26	45.2	1	3	270	0.00	29.852 
17:35	83.4	83.4	81.2	26	44.9	2	4	270	0.00	29.852 
17:40	83.2	83.2	81.0	26	44.7	2	4	270	0.00	29.852 
17:45	83.0	83.0	80.9	26	44.6	1	4	270	0.00	29.858 
17:50	83.0	83.0	81.0	27	45.5	0	1	270	0.00	29.858 
17:55	82.8	82.8	80.8	27	45.4	1	4	292	0.00	29.858 
18:00	82.6	82.6	80.7	27	45.2	1	4	270	0.00	29.854 
18:05	82.6	82.6	80.7	27	45.2	1	3	270	0.00	29.854 
18:10	82.4	82.4	80.5	27	45.0	1	3	315	0.00	29.854 
18:15	82.2	82.2	80.4	27	44.9	1	3	292	0.00	29.851 
18:20	81.8	81.8	80.2	28	45.5	1	3	292	0.00	29.851 
18:25	81.6	81.6	80.1	28	45.3	1	2	292	0.00	29.851 
18:30	81.4	81.4	79.9	27	44.2	0	1	292	0.00	29.850 
18:35	81.2	81.2	79.8	28	45.0	0	1	292	0.00	29.850 
18:40	80.7	80.7	79.5	29	45.5	0	1	292	0.00	29.850 
18:45	80.3	80.3	79.4	30	46.0	0	0	---	0.00	29.850 
18:50	79.6	79.6	79.0	31	46.3	0	0	---	0.00	29.850 
18:55	78.8	78.8	78.6	32	46.4	0	0	---	0.00	29.850 
19:00	78.1	78.1	78.4	33	46.6	0	0	---	0.00	29.856 
19:05	77.4	77.4	78.1	34	46.8	0	0	---	0.00	29.856 
19:10	76.7	76.7	77.9	36	47.7	0	0	---	0.00	29.856 
19:15	75.8	75.8	77.6	36	46.9	0	0	---	0.00	29.860 
19:20	75.1	75.1	77.4	38	47.7	0	0	---	0.00	29.860 
19:25	74.4	74.4	74.4	39	47.8	0	0	---	0.00	29.860 
19:30	73.7	73.7	73.7	41	48.5	0	0	---	0.00	29.865 
19:35	72.8	72.8	72.8	43	49.0	0	0	---	0.00	29.865 
19:40	72.1	72.1	72.1	44	49.0	0	0	---	0.00	29.865 
19:45	71.5	71.5	71.5	46	49.6	0	0	---	0.00	29.870 
19:50	70.8	70.8	70.8	46	49.0	0	0	---	0.00	29.870 
19:55	70.3	70.3	70.3	48	49.7	0	0	---	0.00	29.870 
20:00	69.6	69.6	69.6	49	49.6	0	0	---	0.00	29.872 
20:05	68.9	68.9	68.9	50	49.5	0	1	292	0.00	29.872 
20:10	68.8	68.8	68.8	50	49.4	0	0	---	0.00	29.872 
20:15	68.4	68.4	68.4	51	49.6	0	0	---	0.00	29.869 
20:20	68.1	68.1	68.1	52	49.8	0	0	---	0.00	29.869 
20:25	67.8	67.8	67.8	52	49.5	0	0	---	0.00	29.869 
20:30	67.4	67.4	67.4	54	50.2	0	0	---	0.00	29.870 
20:35	67.1	67.1	67.1	54	49.9	0	0	---	0.00	29.870 
20:40	66.8	66.8	66.8	55	50.1	0	0	---	0.00	29.870 
20:45	66.6	66.6	66.6	56	50.4	0	0	---	0.00	29.873 
20:50	66.3	66.3	66.3	56	50.1	0	0	---	0.00	29.873 
20:55	66.0	66.0	66.0	57	50.3	0	0	---	0.00	29.873 
21:00	65.6	65.6	65.6	58	50.4	0	0	---	0.00	29.873 
21:05	65.3	65.3	65.3	58	50.1	0	0	---	0.00	29.873 
21:10	65.0	65.0	65.0	59	50.3	0	0	---	0.00	29.873 
21:15	64.7	64.7	64.7	60	50.5	0	0	---	0.00	29.872 
21:20	64.3	64.3	64.3	61	50.6	0	0	---	0.00	29.872 
21:25	64.0	64.0	64.0	62	50.7	0	0	---	0.00	29.872 
21:30	63.7	63.7	63.7	62	50.4	0	0	---	0.00	29.875 
21:35	63.4	63.4	63.4	63	50.6	0	0	---	0.00	29.875 
21:40	63.1	63.1	63.1	64	50.7	0	0	---	0.00	29.875 
21:45	62.9	62.9	62.9	65	50.9	0	0	---	0.00	29.873 
21:50	62.6	62.6	62.6	65	50.7	0	0	---	0.00	29.873 
21:55	62.3	62.3	62.3	66	50.8	0	0	---	0.00	29.873 
22:00	62.1	62.1	62.1	67	51.0	0	0	---	0.00	29.873 
22:05	62.0	62.0	62.0	67	50.9	0	0	---	0.00	29.873 
22:10	61.8	61.8	61.8	67	50.7	0	0	---	0.00	29.873 
22:15	61.6	61.6	61.6	67	50.5	0	0	---	0.00	29.866 
22:20	61.5	61.5	61.5	68	50.8	0	0	---	0.00	29.866 
22:25	61.5	61.5	61.5	68	50.8	0	0	---	0.00	29.866 
22:30	61.3	61.3	61.3	69	51.0	0	0	---	0.00	29.877 
22:35	61.2	61.2	61.2	69	50.9	0	0	---	0.00	29.877 
22:40	60.9	60.9	60.9	69	50.7	0	0	---	0.00	29.877 
22:45	60.7	60.7	60.7	70	50.9	0	0	---	0.00	29.878 
22:50	60.4	60.4	60.4	70	50.6	0	0	---	0.00	29.878 
22:55	60.2	60.2	60.2	71	50.8	0	0	---	0.00	29.878 
23:00	60.1	60.1	60.1	71	50.7	0	0	---	0.00	29.879 
23:05	59.9	59.9	59.9	72	50.8	0	0	---	0.00	29.879 
23:10	59.9	59.9	59.9	72	50.8	0	0	---	0.00	29.879 
23:15	59.8	59.8	59.8	72	50.8	0	0	---	0.00	29.874 
23:20	59.8	59.8	59.8	73	51.1	0	0	---	0.00	29.874 
23:25	59.8	59.8	59.8	73	51.1	0	0	---	0.00	29.874 
23:30	59.6	59.6	59.6	73	50.9	0	0	---	0.00	29.870 
23:35	59.6	59.6	59.6	73	50.9	0	0	---	0.00	29.870 
23:40	59.5	59.5	59.5	74	51.2	0	0	---	0.00	29.870 
23:45	59.3	59.3	59.3	74	51.0	0	0	---	0.00	29.867 
23:50	59.2	59.2	59.2	74	50.9	0	0	---	0.00	29.867 
23:55	59.0	59.0	59.0	74	50.7	0	0	---	0.00	29.867 

CoCoRaHS
IN-AL-39
A2 Web Hosting
Creative Commons License
GoDaddy
search engine by freefind advanced

loaded 2018-11-20 15:17:01 • last modified 2010-11-18 10:43:29
Privacy PolicyDisclaimer
• wx.awcolley.com is powered by PmWiki v.2002016 •
• all content (unless otherwise noted) © 2018 A W Colley